map of YXE home
YXE - Airport
Location
City:  Saskatoon, Saskatchewan, Canada
Name:John G. Diefenbaker International Airport
ICAO:CYXE
IATA:YXE

Details
Type:Airport (Airfield)
Use:Public/Civil, International (customs port of entry)
Latitude:5210'15"N (52.170833)
Longitude:10642'00"W (-106.699999)
Elevation:1654 ft (504 m)
Variation:10.28E (WMM2015 magnetic declination)
-0.13 annual change
Runways:2
Longest:8300 ft (2530 m), paved

Time
Time Zone:UTC-6
Local Time:

Weather
METAR:CYXE 170100Z 16010KT 15SM BKN300 25/08 A3006 RMK CI5 SLP185 DENSITY ALT 3100FT
TAF:CYXE 162338Z 1700/1724 17008KT P6SM FEW160 BKN300
FM170600 18008KT P6SM SKC
RMK NXT FCST BY 170600Z

Related Locations
Nearby:
Farthest:YWKS: 10795 mi / 17373 km
Wilkins Runway (Casey), Upper Peterson Glacier, AQ

Find:

   beyond  
but within

Other Information
Maps:
NOTAMs:
Links:
Sources:

  
  • flag of Canada
  • flag of Saskatchewan
  

Airport Diagram

Airport diagram for YXE

Airport diagram PDF

Sectional Chart

Flight Planning
at skyvector.com

Satellite Image

Google Maps Satellite view

 

Copyright © 2004-2018 Karl L. Swartz. All rights reserved.
The Great Circle Mapper name and logo are trademarks of the Great Circle Mapper.
All other trademarks mentioned herein belong to their respective owners.
Please see credits for attibutions and further copyright information.

  Follow gcmap on Facebook Follow gcmap on Twitter Follow gcmap on Google+ GCmap on LinkedIn

hCard Microformat

Geo Microformat